Gregory David — WDB9815 — position and weather

sailwx.info

Track history (hours):
 
Tides and Currents Weather Stations Pressure Air Temp Water Temp Dewpoint Dewpoint Depression Visibility Wind Speed Wind Dir Waves Ship Positions

Gregory David

Owner: Steel City Marine Transport, Inc, Freedom, PA. More information available from US FCC via Universal Licensing System and Coast Guard Vessel Documentation Center.

Last reported at 2018-Jun-20 02:00 UTC. Time now 2018-Jun-20 01:57 UTC.
Position N 31°42' W 091°24'.

Length 50 m.

Type: Towing. MMSI: 366983290.

Date/timePositionNaut miles runAvg speedWind from/ knotsBaromVisibWave heightAir tempDewpointWater temp
2018-Jun-20 02:00N 31°42' W 091°24'  
2018-Jun-13 19:32N 31°58' W 091°11'5 6.9
2018-Jun-13 18:48N 31°60' W 091°06'2 7.5
2018-Jun-13 18:31N 32°01' W 091°04'3 6.5
2018-Jun-13 17:59N 32°05' W 091°04'3 6.0
2018-Jun-13 17:31N 32°07' W 091°06'2 4.6
2018-Jun-13 17:00N 32°08' W 091°04'3 6.4
2018-Jun-13 16:31N 32°09' W 091°00'4 7.7
2018-Jun-13 16:01N 32°12' W 090°59'4 7.4
2018-Jun-13 15:31N 32°16' W 090°58'4 8.0
2018-Jun-13 15:01N 32°19' W 090°54'3 5.5
2018-Jun-13 14:31N 32°21' W 090°56'3 6.8
2018-Jun-13 14:00N 32°22' W 091°00'3 6.8
2018-Jun-13 13:31N 32°25' W 091°00'4 7.6
2018-Jun-13 13:01N 32°27' W 091°05'4 7.3
2018-Jun-13 12:31N 32°30' W 091°07'4 7.7
2018-Jun-13 12:00N 32°33' W 091°06'4 7.5
2018-Jun-13 11:31N 32°36' W 091°09'4 7.3
2018-Jun-13 11:00N 32°40' W 091°08'4 7.3
2018-Jun-13 10:30N 32°42' W 091°04'3 5.2
2018-Jun-13 09:55N 32°44' W 091°06'3 6.7
2018-Jun-13 09:31N 32°45' W 091°09'4 7.4
2018-Jun-13 09:01N 32°49' W 091°09'7 7.5
2018-Jun-13 08:04N 32°54' W 091°04'1 7.9
2018-Jun-13 07:58N 32°55' W 091°04'4 7.5
2018-Jun-13 07:22N 32°57' W 091°08'2 6.6
2018-Jun-13 07:00N 32°60' W 091°10'  
Track history (hours):
 
Tides and Currents Weather Stations Pressure Air Temp Water Temp Dewpoint Dewpoint Depression Visibility Wind Speed Wind Dir Waves Ship Positions

Gregory David

Owner: Steel City Marine Transport, Inc, Freedom, PA. More information available from US FCC via Universal Licensing System and Coast Guard Vessel Documentation Center.

Last reported at 2018-Jun-20 02:00 UTC. Time now 2018-Jun-20 01:57 UTC.
Position N 31°42' W 091°24'.

Length 50 m.

Type: Towing. MMSI: 366983290.

Date/timePositionNaut miles runAvg speedWind from/ knotsBaromVisibWave heightAir tempDewpointWater temp
2018-Jun-20 02:00N 31°42' W 091°24'  
2018-Jun-13 19:32N 31°58' W 091°11'5 6.9
2018-Jun-13 18:48N 31°60' W 091°06'2 7.5
2018-Jun-13 18:31N 32°01' W 091°04'3 6.5
2018-Jun-13 17:59N 32°05' W 091°04'3 6.0
2018-Jun-13 17:31N 32°07' W 091°06'2 4.6
2018-Jun-13 17:00N 32°08' W 091°04'3 6.4
2018-Jun-13 16:31N 32°09' W 091°00'4 7.7
2018-Jun-13 16:01N 32°12' W 090°59'4 7.4
2018-Jun-13 15:31N 32°16' W 090°58'4 8.0
2018-Jun-13 15:01N 32°19' W 090°54'3 5.5
2018-Jun-13 14:31N 32°21' W 090°56'3 6.8
2018-Jun-13 14:00N 32°22' W 091°00'3 6.8
2018-Jun-13 13:31N 32°25' W 091°00'4 7.6
2018-Jun-13 13:01N 32°27' W 091°05'4 7.3
2018-Jun-13 12:31N 32°30' W 091°07'4 7.7
2018-Jun-13 12:00N 32°33' W 091°06'4 7.5
2018-Jun-13 11:31N 32°36' W 091°09'4 7.3
2018-Jun-13 11:00N 32°40' W 091°08'4 7.3
2018-Jun-13 10:30N 32°42' W 091°04'3 5.2
2018-Jun-13 09:55N 32°44' W 091°06'3 6.7
2018-Jun-13 09:31N 32°45' W 091°09'4 7.4
2018-Jun-13 09:01N 32°49' W 091°09'7 7.5
2018-Jun-13 08:04N 32°54' W 091°04'1 7.9
2018-Jun-13 07:58N 32°55' W 091°04'4 7.5
2018-Jun-13 07:22N 32°57' W 091°08'2 6.6
2018-Jun-13 07:00N 32°60' W 091°10'  

Dump ship's entire track history